createdAt,value
2022-12-11T00:01:13.038Z,85.13
2022-12-11T00:03:42.791Z,85.34
2022-12-11T00:06:16.734Z,85.62
2022-12-11T00:08:44.778Z,85.84
2022-12-11T00:11:15.722Z,85.71
2022-12-11T00:13:44.398Z,85.18
2022-12-11T00:16:13.054Z,85.03
2022-12-11T00:18:41.440Z,85.24
2022-12-11T00:21:14.383Z,85.40
2022-12-11T00:23:42.786Z,85.30
2022-12-11T00:26:15.466Z,85.21
2022-12-11T00:28:45.450Z,85.31
2022-12-11T00:31:17.059Z,85.05
2022-12-11T00:33:49.076Z,84.92
2022-12-11T00:36:25.400Z,84.88
2022-12-11T00:38:54.351Z,85.02
2022-12-11T00:41:22.663Z,84.81
2022-12-11T00:43:51.368Z,84.92
2022-12-11T00:46:19.601Z,85.30
2022-12-11T00:48:49.817Z,85.20
2022-12-11T00:51:18.064Z,85.16
2022-12-11T00:53:45.908Z,85.19
2022-12-11T00:56:18.204Z,85.32
2022-12-11T00:58:48.253Z,85.65
2022-12-11T01:01:21.853Z,85.57
2022-12-11T01:03:50.820Z,85.81
2022-12-11T01:06:26.048Z,85.65
2022-12-11T01:09:22.153Z,85.93
2022-12-11T01:11:50.040Z,86.38
2022-12-11T01:14:17.776Z,86.25
2022-12-11T01:16:45.535Z,86.40
2022-12-11T01:19:13.261Z,86.57
2022-12-11T01:21:41.202Z,87.06
2022-12-11T01:24:08.997Z,86.98
2022-12-11T01:26:36.878Z,86.61
2022-12-11T01:29:04.541Z,86.31
2022-12-11T01:31:32.254Z,86.16
2022-12-11T01:33:59.974Z,86.62
2022-12-11T01:36:27.726Z,86.40
2022-12-11T01:38:56.141Z,86.31
2022-12-11T01:41:23.868Z,86.60
2022-12-11T01:44:13.676Z,86.80
2022-12-11T01:46:43.019Z,86.78
2022-12-11T01:49:15.177Z,86.63
2022-12-11T01:51:55.433Z,86.72
2022-12-11T01:54:25.568Z,86.68
2022-12-11T01:57:00.136Z,86.80
2022-12-11T01:59:34.145Z,86.85
2022-12-11T02:02:12.284Z,86.91
2022-12-11T02:04:42.280Z,86.81
2022-12-11T02:07:10.543Z,86.86
2022-12-11T02:09:42.476Z,86.95
2022-12-11T02:12:39.222Z,86.75
2022-12-11T02:15:25.140Z,86.45
2022-12-11T02:18:02.134Z,86.34
2022-12-11T02:21:15.609Z,86.16
2022-12-11T02:24:04.267Z,85.70
2022-12-11T02:26:57.545Z,85.60
2022-12-11T02:29:38.908Z,85.90
2022-12-11T02:32:20.980Z,85.72
2022-12-11T02:35:11.405Z,85.74
2022-12-11T02:37:45.085Z,86.10
2022-12-11T02:40:17.866Z,85.91
2022-12-11T02:42:48.932Z,85.93
2022-12-11T02:45:19.945Z,86.05
2022-12-11T02:47:49.583Z,86.11
2022-12-11T02:50:21.986Z,86.62
2022-12-11T02:52:55.747Z,86.75
2022-12-11T02:55:27.548Z,86.24
2022-12-11T02:58:04.201Z,86.48
2022-12-11T03:00:32.252Z,86.85
2022-12-11T03:03:00.048Z,87.19
2022-12-11T03:05:27.997Z,87.33
2022-12-11T03:07:56.310Z,87.30
2022-12-11T03:10:25.133Z,87.37
2022-12-11T03:12:56.985Z,87.47
2022-12-11T03:15:59.227Z,87.55
2022-12-11T03:19:06.605Z,87.83
2022-12-11T03:21:42.666Z,87.69
2022-12-11T03:24:44.202Z,87.89
2022-12-11T03:27:26.728Z,88.04
2022-12-11T03:30:01.567Z,87.76
2022-12-11T03:32:38.306Z,87.79
2022-12-11T03:35:16.182Z,87.96
2022-12-11T03:37:47.880Z,87.99
2022-12-11T03:40:20.500Z,88.13
2022-12-11T03:42:53.646Z,88.18
2022-12-11T03:45:25.406Z,88.17
2022-12-11T03:47:56.850Z,88.07
2022-12-11T03:50:27.169Z,88.15
2022-12-11T03:52:57.564Z,88.14
2022-12-11T03:55:28.115Z,88.37
2022-12-11T03:57:55.935Z,88.03
2022-12-11T04:00:23.839Z,87.46
2022-12-11T04:03:13.544Z,87.65
2022-12-11T04:05:46.383Z,87.37
2022-12-11T04:08:15.468Z,87.34
2022-12-11T04:10:44.037Z,87.59
2022-12-11T04:13:12.150Z,87.40
2022-12-11T04:15:40.865Z,87.59
2022-12-11T04:18:28.009Z,87.45
2022-12-11T04:21:15.176Z,87.30
2022-12-11T04:24:01.774Z,87.33
2022-12-11T04:26:29.440Z,87.68
2022-12-11T04:28:57.160Z,87.56
2022-12-11T04:31:24.895Z,87.35
2022-12-11T04:33:53.201Z,87.69
2022-12-11T04:36:21.289Z,87.71
2022-12-11T04:38:49.013Z,87.48
2022-12-11T04:41:17.980Z,87.43
2022-12-11T04:43:45.743Z,87.59
2022-12-11T04:46:21.371Z,87.87
2022-12-11T04:48:55.397Z,88.04
2022-12-11T04:51:25.960Z,87.90
2022-12-11T04:53:54.479Z,87.94
2022-12-11T04:56:22.387Z,88.11
2022-12-11T04:58:50.222Z,87.99
2022-12-11T05:01:22.709Z,87.77
2022-12-11T05:03:50.933Z,88.00
2022-12-11T05:06:18.652Z,88.03
2022-12-11T05:08:46.473Z,87.83
2022-12-11T05:11:15.810Z,87.92
2022-12-11T05:13:45.428Z,88.12
2022-12-11T05:16:16.515Z,88.25
2022-12-11T05:18:44.843Z,88.20
2022-12-11T05:21:15.778Z,88.28
2022-12-11T05:23:44.036Z,87.84
2022-12-11T05:26:17.721Z,87.67
2022-12-11T05:28:46.997Z,87.98
2022-12-11T05:31:19.049Z,87.96
2022-12-11T05:33:50.180Z,87.42
2022-12-11T05:36:29.737Z,87.27
2022-12-11T05:39:00.621Z,87.71
2022-12-11T05:41:32.573Z,87.79
2022-12-11T05:44:00.458Z,87.60
2022-12-11T05:46:31.231Z,87.82
2022-12-11T05:49:02.262Z,87.61
2022-12-11T05:51:31.157Z,87.77
2022-12-11T05:53:58.928Z,87.95
2022-12-11T05:56:33.941Z,88.06
2022-12-11T05:59:04.172Z,87.93
2022-12-11T06:01:42.788Z,87.98
2022-12-11T06:04:12.457Z,88.11
2022-12-11T06:06:40.905Z,88.02
2022-12-11T06:09:08.687Z,88.09
2022-12-11T06:11:36.495Z,88.08
2022-12-11T06:14:04.710Z,87.79
2022-12-11T06:16:32.585Z,87.78
2022-12-11T06:19:00.576Z,87.96
2022-12-11T06:21:33.181Z,88.11
2022-12-11T06:24:03.749Z,88.16
2022-12-11T06:26:32.312Z,88.23
2022-12-11T06:29:00.290Z,88.26
2022-12-11T06:31:28.250Z,88.35
2022-12-11T06:33:56.300Z,88.37
2022-12-11T06:36:25.188Z,88.42
2022-12-11T06:38:55.396Z,88.55
2022-12-11T06:41:23.289Z,88.63
2022-12-11T06:43:51.120Z,88.66
2022-12-11T06:46:20.841Z,88.73
2022-12-11T06:48:49.870Z,88.86
2022-12-11T06:51:21.934Z,88.91
2022-12-11T06:53:55.192Z,88.83
2022-12-11T06:56:24.622Z,88.74
2022-12-11T06:58:53.104Z,88.82
2022-12-11T07:01:25.670Z,88.77
2022-12-11T07:03:56.435Z,88.64
2022-12-11T07:06:27.468Z,88.82
2022-12-11T07:08:56.640Z,89.03
2022-12-11T07:11:24.383Z,89.02
2022-12-11T07:13:52.194Z,89.06
2022-12-11T07:16:20.276Z,89.04
2022-12-11T07:18:51.373Z,89.07
2022-12-11T07:21:21.242Z,89.09
2022-12-11T07:23:50.323Z,88.80
2022-12-11T07:26:22.208Z,89.11
2022-12-11T07:28:50.250Z,89.30
2022-12-11T07:31:23.023Z,89.43
2022-12-11T07:34:02.005Z,89.62
2022-12-11T07:36:31.123Z,89.68
2022-12-11T07:39:00.781Z,89.45
2022-12-11T07:41:28.868Z,89.60
2022-12-11T07:43:56.565Z,89.68
2022-12-11T07:46:29.032Z,89.72
2022-12-11T07:48:56.919Z,89.73
2022-12-11T07:51:28.799Z,89.79
2022-12-11T07:54:00.699Z,89.74
2022-12-11T07:56:30.341Z,89.73
2022-12-11T07:59:02.207Z,89.72
2022-12-11T08:01:35.664Z,89.64
2022-12-11T08:04:07.455Z,89.55
2022-12-11T08:06:38.768Z,89.49
2022-12-11T08:09:09.831Z,89.47
2022-12-11T08:11:38.339Z,89.38
2022-12-11T08:14:07.897Z,89.41
2022-12-11T08:16:36.532Z,89.34
2022-12-11T08:19:04.648Z,89.32
2022-12-11T08:21:32.350Z,89.40
2022-12-11T08:24:00.169Z,89.36
2022-12-11T08:26:31.837Z,89.28
2022-12-11T08:29:02.026Z,89.46
2022-12-11T08:31:30.513Z,89.24
2022-12-11T08:33:58.492Z,89.31
2022-12-11T08:36:26.442Z,89.26
2022-12-11T08:38:56.316Z,89.26
2022-12-11T08:41:28.729Z,89.04
2022-12-11T08:43:58.634Z,88.97
2022-12-11T08:46:30.667Z,89.00
2022-12-11T08:48:59.603Z,88.79
2022-12-11T08:51:30.262Z,88.71
2022-12-11T08:54:01.077Z,88.76
2022-12-11T08:56:30.277Z,88.74
2022-12-11T08:59:01.120Z,88.76
2022-12-11T09:01:29.771Z,88.80
2022-12-11T09:03:58.116Z,88.83
2022-12-11T09:06:30.178Z,88.76
2022-12-11T09:09:01.489Z,88.45
2022-12-11T09:11:33.038Z,88.49
2022-12-11T09:14:07.129Z,88.54
2022-12-11T09:16:40.440Z,88.26
2022-12-11T09:19:14.306Z,88.33
2022-12-11T09:21:43.864Z,88.24
2022-12-11T09:24:13.558Z,88.21
2022-12-11T09:26:41.508Z,88.14
2022-12-11T09:29:10.778Z,88.38
2022-12-11T09:31:38.511Z,88.42
2022-12-11T09:34:09.210Z,88.39
2022-12-11T09:36:40.247Z,88.31
2022-12-11T09:39:10.831Z,88.21
2022-12-11T09:42:11.196Z,88.33
2022-12-11T09:44:52.276Z,88.45
2022-12-11T09:47:38.437Z,88.17
2022-12-11T09:50:09.124Z,87.89
2022-12-11T09:53:17.817Z,87.70
2022-12-11T09:56:15.824Z,87.72
2022-12-11T09:59:03.143Z,87.46
2022-12-11T10:01:49.339Z,87.39
2022-12-11T10:04:32.077Z,87.38
2022-12-11T10:07:15.446Z,87.30
2022-12-11T10:10:01.433Z,87.22
2022-12-11T10:13:02.853Z,87.46
2022-12-11T10:15:47.625Z,87.35
2022-12-11T10:18:23.083Z,87.20
2022-12-11T10:20:53.853Z,86.89
2022-12-11T10:23:38.408Z,86.97
2022-12-11T10:26:16.792Z,87.09
2022-12-11T10:28:45.020Z,87.26
2022-12-11T10:31:56.048Z,87.25
2022-12-11T10:34:40.032Z,87.58
2022-12-11T10:37:07.911Z,87.54
2022-12-11T10:39:35.630Z,87.62
2022-12-11T10:42:18.382Z,87.71
2022-12-11T10:45:16.385Z,87.62
2022-12-11T10:47:44.165Z,87.61
2022-12-11T10:50:26.345Z,87.56
2022-12-11T10:52:54.228Z,87.46
2022-12-11T10:55:27.216Z,87.48
2022-12-11T10:58:00.960Z,86.94
2022-12-11T11:00:35.108Z,87.05
2022-12-11T11:03:05.918Z,87.32
2022-12-11T11:05:36.946Z,87.36
2022-12-11T11:08:24.290Z,87.27
2022-12-11T11:10:59.928Z,87.14
2022-12-11T11:13:32.486Z,87.19
2022-12-11T11:16:12.425Z,87.35
2022-12-11T11:18:41.962Z,87.44
2022-12-11T11:21:24.047Z,87.12
2022-12-11T11:23:54.211Z,87.10
2022-12-11T11:26:23.128Z,87.44
2022-12-11T11:28:57.317Z,87.72
2022-12-11T11:31:35.078Z,87.74
2022-12-11T11:34:10.757Z,87.87
2022-12-11T11:36:38.629Z,87.78
2022-12-11T11:39:32.691Z,87.40
2022-12-11T11:42:20.962Z,87.12
2022-12-11T11:45:20.609Z,86.83
2022-12-11T11:48:11.048Z,86.84
2022-12-11T11:50:45.649Z,86.81
2022-12-11T11:53:31.158Z,86.86
2022-12-11T11:56:37.632Z,87.16
2022-12-11T11:59:27.019Z,87.46
2022-12-11T12:01:57.904Z,87.19
2022-12-11T12:04:34.225Z,87.16
2022-12-11T12:07:19.832Z,87.23
2022-12-11T12:10:13.299Z,87.36
2022-12-11T12:12:52.276Z,87.53
2022-12-11T12:16:01.527Z,87.14
2022-12-11T12:19:03.654Z,87.42
2022-12-11T12:21:37.519Z,87.42
2022-12-11T12:24:15.591Z,87.41
2022-12-11T12:27:00.274Z,87.78
2022-12-11T12:29:56.668Z,87.96
2022-12-11T12:32:36.502Z,87.98
2022-12-11T12:35:50.471Z,87.72
2022-12-11T12:38:43.695Z,87.80
2022-12-11T12:42:05.619Z,87.84
2022-12-11T12:45:12.486Z,88.09
2022-12-11T12:47:46.673Z,87.95
2022-12-11T12:50:21.838Z,87.88
2022-12-11T12:52:53.041Z,87.98
2022-12-11T12:55:31.727Z,88.10
2022-12-11T12:58:05.297Z,88.16
2022-12-11T13:00:41.146Z,88.21
2022-12-11T13:03:23.052Z,88.22
2022-12-11T13:06:04.872Z,88.11
2022-12-11T13:08:52.608Z,88.18
2022-12-11T13:11:32.860Z,87.62
2022-12-11T13:14:22.088Z,87.78
2022-12-11T13:16:53.363Z,87.85
2022-12-11T13:19:24.093Z,87.71
2022-12-11T13:22:24.177Z,87.74
2022-12-11T13:24:51.834Z,87.64
2022-12-11T13:27:26.228Z,87.30
2022-12-11T13:30:24.412Z,86.75
2022-12-11T13:33:15.656Z,87.05
2022-12-11T13:35:43.818Z,87.51
2022-12-11T13:38:20.111Z,87.66
2022-12-11T13:40:55.654Z,87.88
2022-12-11T13:43:30.920Z,87.64
2022-12-11T13:46:12.966Z,87.91
2022-12-11T13:48:57.117Z,88.01
2022-12-11T13:51:27.007Z,87.80
2022-12-11T13:54:17.863Z,87.75
2022-12-11T13:56:59.201Z,87.61
2022-12-11T13:59:37.805Z,87.65
2022-12-11T14:02:21.225Z,87.74
2022-12-11T14:04:54.867Z,87.96
2022-12-11T14:07:47.950Z,87.77
2022-12-11T14:10:27.630Z,87.92
2022-12-11T14:13:07.456Z,87.96
2022-12-11T14:15:36.863Z,87.99
2022-12-11T14:18:05.574Z,88.11
2022-12-11T14:20:34.541Z,88.00
2022-12-11T14:23:18.849Z,88.16
2022-12-11T14:25:55.389Z,88.07
2022-12-11T14:28:27.731Z,87.87
2022-12-11T14:30:59.726Z,87.70
2022-12-11T14:33:34.004Z,87.52
2022-12-11T14:36:03.450Z,87.72
2022-12-11T14:38:44.472Z,87.78
2022-12-11T14:42:07.455Z,87.88
2022-12-11T14:45:20.660Z,88.01
2022-12-11T14:47:50.676Z,88.11
2022-12-11T14:50:39.431Z,88.09
2022-12-11T14:53:41.777Z,88.23
2022-12-11T14:56:23.223Z,88.31
2022-12-11T14:59:25.474Z,88.21
2022-12-11T15:02:32.602Z,88.15
2022-12-11T15:05:19.406Z,88.28
2022-12-11T15:08:13.480Z,88.01
2022-12-11T15:10:55.442Z,87.98
2022-12-11T15:13:24.356Z,87.84
2022-12-11T15:15:55.681Z,87.74
2022-12-11T15:18:32.689Z,87.82
2022-12-11T15:21:07.069Z,87.81
2022-12-11T15:23:54.635Z,87.81
2022-12-11T15:26:44.718Z,87.88
2022-12-11T15:29:36.194Z,87.94
2022-12-11T15:32:21.709Z,88.01
2022-12-11T15:34:59.787Z,88.24
2022-12-11T15:37:33.138Z,87.92
2022-12-11T15:40:04.707Z,87.89
2022-12-11T15:42:36.940Z,87.74
2022-12-11T15:45:16.149Z,87.56
2022-12-11T15:47:44.544Z,87.51
2022-12-11T15:50:21.828Z,87.45
2022-12-11T15:52:51.957Z,87.29
2022-12-11T15:55:22.398Z,87.28
2022-12-11T15:57:58.051Z,87.30
2022-12-11T16:00:28.057Z,87.18
2022-12-11T16:02:57.395Z,87.57
2022-12-11T16:05:26.917Z,87.61
2022-12-11T16:07:59.173Z,87.52
2022-12-11T16:10:27.418Z,87.39
2022-12-11T16:12:59.336Z,87.18
2022-12-11T16:15:27.189Z,87.15
2022-12-11T16:18:08.388Z,87.25
2022-12-11T16:20:38.225Z,87.29
2022-12-11T16:23:06.002Z,87.61
2022-12-11T16:25:34.406Z,87.54
2022-12-11T16:28:02.189Z,87.31
2022-12-11T16:30:30.194Z,87.22
2022-12-11T16:32:57.925Z,87.38
2022-12-11T16:35:25.638Z,87.50
2022-12-11T16:37:54.199Z,87.59
2022-12-11T16:40:22.744Z,87.64
2022-12-11T16:42:50.918Z,87.70
2022-12-11T16:45:23.648Z,87.72
2022-12-11T16:47:52.614Z,87.86
2022-12-11T16:50:22.371Z,87.99
2022-12-11T16:52:50.184Z,88.09
2022-12-11T16:55:22.024Z,88.12
2022-12-11T16:57:49.735Z,88.24
2022-12-11T17:00:17.772Z,88.32
2022-12-11T17:02:45.517Z,88.34
2022-12-11T17:05:13.859Z,88.46
2022-12-11T17:07:41.709Z,88.54
2022-12-11T17:10:10.690Z,88.48
2022-12-11T17:12:38.959Z,88.57
2022-12-11T17:15:07.658Z,88.53
2022-12-11T17:17:35.467Z,88.51
2022-12-11T17:20:03.963Z,88.54
2022-12-11T17:22:31.674Z,88.49
2022-12-11T17:24:59.396Z,88.53
2022-12-11T17:27:27.493Z,88.40
2022-12-11T17:29:55.193Z,88.34
2022-12-11T17:32:22.897Z,88.41
2022-12-11T17:34:50.727Z,88.50
2022-12-11T17:37:18.618Z,88.47
2022-12-11T17:39:47.507Z,88.57
2022-12-11T17:42:15.302Z,88.51
2022-12-11T17:44:45.364Z,88.61
2022-12-11T17:47:13.308Z,88.63
2022-12-11T17:49:41.163Z,88.69
2022-12-11T17:52:09.055Z,88.70
2022-12-11T17:54:36.797Z,88.68
2022-12-11T17:57:06.449Z,88.70
2022-12-11T17:59:34.216Z,88.66
2022-12-11T18:02:02.069Z,88.63
2022-12-11T18:04:30.093Z,88.66
2022-12-11T18:06:58.027Z,88.72
2022-12-11T18:09:25.844Z,88.74
2022-12-11T18:11:53.864Z,88.81
2022-12-11T18:14:21.695Z,88.74
2022-12-11T18:16:49.660Z,88.75
2022-12-11T18:19:17.600Z,88.78
2022-12-11T18:21:45.771Z,88.76
2022-12-11T18:24:13.476Z,88.62
2022-12-11T18:26:44.204Z,88.63
2022-12-11T18:29:12.429Z,88.69
2022-12-11T18:31:42.828Z,88.73
2022-12-11T18:34:11.064Z,88.69
2022-12-11T18:36:40.681Z,88.70
2022-12-11T18:39:09.157Z,88.70
2022-12-11T18:41:36.931Z,88.72
2022-12-11T18:44:09.500Z,88.80
2022-12-11T18:46:39.507Z,88.63
2022-12-11T18:49:07.584Z,88.71
2022-12-11T18:51:35.930Z,88.64
2022-12-11T18:54:03.892Z,88.71
2022-12-11T18:56:31.702Z,88.58
2022-12-11T18:58:59.384Z,88.53
2022-12-11T19:01:30.126Z,88.60
2022-12-11T19:04:04.544Z,88.65
2022-12-11T19:06:35.679Z,88.68
2022-12-11T19:09:06.599Z,88.77
2022-12-11T19:11:38.925Z,88.94
2022-12-11T19:14:08.038Z,88.99
2022-12-11T19:16:40.749Z,89.11
2022-12-11T19:19:19.504Z,89.18
2022-12-11T19:21:49.613Z,89.24
2022-12-11T19:24:23.251Z,89.27
2022-12-11T19:26:51.732Z,89.26
2022-12-11T19:29:26.972Z,89.21
2022-12-11T19:31:55.997Z,89.31
2022-12-11T19:34:24.807Z,89.31
2022-12-11T19:36:53.623Z,89.36
2022-12-11T19:39:21.452Z,89.45
2022-12-11T19:41:49.679Z,89.39
2022-12-11T19:44:17.485Z,89.64
2022-12-11T19:46:45.287Z,89.65
2022-12-11T19:49:13.068Z,89.68
2022-12-11T19:51:42.570Z,89.81
2022-12-11T19:54:15.522Z,89.99
2022-12-11T19:56:44.367Z,89.99
2022-12-11T19:59:16.681Z,90.18
2022-12-11T20:01:47.913Z,90.22
2022-12-11T20:04:17.660Z,90.47
2022-12-11T20:06:47.130Z,90.55
2022-12-11T20:09:15.999Z,90.59
2022-12-11T20:11:45.466Z,90.63
2022-12-11T20:14:25.556Z,90.71
2022-12-11T20:17:11.307Z,90.83
2022-12-11T20:19:41.002Z,90.90
2022-12-11T20:22:09.468Z,91.06
2022-12-11T20:24:37.545Z,91.16
2022-12-11T20:27:05.634Z,91.29
2022-12-11T20:29:33.309Z,91.17
2022-12-11T20:32:01.135Z,91.38
2022-12-11T20:34:29.125Z,91.44
2022-12-11T20:36:57.029Z,91.26
2022-12-11T20:39:24.776Z,91.20
2022-12-11T20:41:52.529Z,91.17
2022-12-11T20:44:20.392Z,91.00
2022-12-11T20:46:48.180Z,91.01
2022-12-11T20:49:16.401Z,90.92
2022-12-11T20:51:44.143Z,90.84
2022-12-11T20:54:12.694Z,90.76
2022-12-11T20:56:40.533Z,90.65
2022-12-11T20:59:08.265Z,90.57
2022-12-11T21:01:36.222Z,90.65
2022-12-11T21:04:04.209Z,90.66
2022-12-11T21:06:36.774Z,90.74
2022-12-11T21:09:09.320Z,90.82
2022-12-11T21:11:37.311Z,90.77
2022-12-11T21:14:07.369Z,90.68
2022-12-11T21:16:36.767Z,90.57
2022-12-11T21:19:06.587Z,90.55
2022-12-11T21:21:42.615Z,90.45
2022-12-11T21:24:18.592Z,90.45
2022-12-11T21:26:48.355Z,90.40
2022-12-11T21:29:17.104Z,90.32
2022-12-11T21:31:44.968Z,90.21
2022-12-11T21:34:13.967Z,90.11
2022-12-11T21:36:46.637Z,90.01
2022-12-11T21:39:15.096Z,90.10
2022-12-11T21:41:42.888Z,89.98
2022-12-11T21:46:59.140Z,89.90
2022-12-11T21:49:27.076Z,89.82
2022-12-11T21:51:55.758Z,89.64
2022-12-11T21:54:23.489Z,89.73
2022-12-11T21:56:51.487Z,89.69
2022-12-11T21:59:19.228Z,89.70
2022-12-11T22:01:47.195Z,89.72
2022-12-11T22:04:16.091Z,89.74
2022-12-11T22:06:47.128Z,89.47
2022-12-11T22:09:17.771Z,89.60
2022-12-11T22:11:47.045Z,89.72
2022-12-11T22:14:18.068Z,89.81
2022-12-11T22:16:46.543Z,89.84
2022-12-11T22:19:14.538Z,89.95
2022-12-11T22:21:42.747Z,89.92
2022-12-11T22:24:10.635Z,89.98
2022-12-11T22:26:39.154Z,89.98
2022-12-11T22:29:07.031Z,89.93
2022-12-11T22:31:34.852Z,89.84
2022-12-11T22:34:02.625Z,89.81
2022-12-11T22:36:30.321Z,89.75
2022-12-11T22:39:00.107Z,89.65
2022-12-11T22:41:31.599Z,89.68
2022-12-11T22:44:00.094Z,89.60
2022-12-11T22:46:34.047Z,89.60
2022-12-11T22:49:01.803Z,89.53
2022-12-11T22:51:30.722Z,89.46
2022-12-11T22:54:00.001Z,89.48
2022-12-11T22:56:27.893Z,89.36
2022-12-11T22:58:57.355Z,89.47
2022-12-11T23:01:28.221Z,89.50
2022-12-11T23:03:56.053Z,89.42
2022-12-11T23:06:25.052Z,89.41
2022-12-11T23:08:58.352Z,89.40
2022-12-11T23:11:35.016Z,89.28
2022-12-11T23:14:06.074Z,89.34
2022-12-11T23:16:34.170Z,89.31
2022-12-11T23:19:02.856Z,89.28
2022-12-11T23:21:30.865Z,89.33
2022-12-11T23:23:58.968Z,89.38
2022-12-11T23:26:28.629Z,89.60
2022-12-11T23:28:58.453Z,89.68
2022-12-11T23:31:27.719Z,89.73
2022-12-11T23:33:56.224Z,89.79
2022-12-11T23:36:26.262Z,89.87
2022-12-11T23:38:55.240Z,89.86
2022-12-11T23:41:23.871Z,89.73
2022-12-11T23:43:52.241Z,89.72
2022-12-11T23:46:23.487Z,89.72
2022-12-11T23:48:53.289Z,89.78
2022-12-11T23:51:24.996Z,89.72
2022-12-11T23:53:53.370Z,89.75
2022-12-11T23:56:27.765Z,89.90
2022-12-11T23:58:56.749Z,89.95
